createdAt,value
2023-03-18T00:00:44.986Z,100986.11
2023-03-18T00:01:54.071Z,100988.32
2023-03-18T00:02:57.030Z,100985.44
2023-03-18T00:04:01.150Z,100991.48
2023-03-18T00:05:05.614Z,100989.83
2023-03-18T00:06:14.164Z,100989.95
2023-03-18T00:07:17.294Z,100995.02
2023-03-18T00:08:20.223Z,100990.94
2023-03-18T00:09:24.042Z,100984.59
2023-03-18T00:10:26.892Z,100982.32
2023-03-18T00:11:30.647Z,100982.85
2023-03-18T00:12:33.563Z,100980.48
2023-03-18T00:13:36.888Z,100977.48
2023-03-18T00:14:39.710Z,100979.02
2023-03-18T00:15:42.506Z,100974.91
2023-03-18T00:16:45.930Z,100979.45
2023-03-18T00:17:48.723Z,100983.29
2023-03-18T00:18:52.146Z,100981.54
2023-03-18T00:19:55.312Z,100980.05
2023-03-18T00:21:00.162Z,100980.66
2023-03-18T00:22:03.068Z,100980.71
2023-03-18T00:23:08.628Z,100978.45
2023-03-18T00:24:12.418Z,100983.58
2023-03-18T00:25:15.532Z,100978.20
2023-03-18T00:26:18.294Z,100977.97
2023-03-18T00:27:21.354Z,100973.91
2023-03-18T00:28:25.432Z,100972.54
2023-03-18T00:29:28.218Z,100973.92
2023-03-18T00:30:31.406Z,100972.83
2023-03-18T00:31:34.432Z,100973.77
2023-03-18T00:32:38.827Z,100968.17
2023-03-18T00:33:46.001Z,100966.02
2023-03-18T00:34:50.807Z,100967.84
2023-03-18T00:35:54.782Z,100959.93
2023-03-18T00:36:57.677Z,100962.53
2023-03-18T00:38:00.590Z,100958.84
2023-03-18T00:39:04.015Z,100959.36
2023-03-18T00:40:17.237Z,100961.83
2023-03-18T00:41:20.394Z,100961.86
2023-03-18T00:42:23.884Z,100957.31
2023-03-18T00:43:29.557Z,100960.39
2023-03-18T00:44:33.170Z,100954.94
2023-03-18T00:45:41.190Z,100956.42
2023-03-18T00:46:44.006Z,100952.98
2023-03-18T00:47:48.513Z,100949.97
2023-03-18T00:48:53.112Z,100952.48
2023-03-18T00:49:55.996Z,100948.77
2023-03-18T00:50:59.423Z,100946.58
2023-03-18T00:52:02.282Z,100947.56
2023-03-18T00:53:06.121Z,100949.33
2023-03-18T00:54:12.873Z,100944.56
2023-03-18T00:55:15.820Z,100948.13
2023-03-18T00:56:22.156Z,100945.94
2023-03-18T00:57:25.291Z,100944.39
2023-03-18T00:58:28.093Z,100942.87
2023-03-18T00:59:33.221Z,100941.40
2023-03-18T01:00:37.920Z,100936.35
2023-03-18T01:01:41.054Z,100942.95
2023-03-18T01:02:44.373Z,100939.53
2023-03-18T01:03:49.365Z,100942.36
2023-03-18T01:04:52.355Z,100939.44
2023-03-18T01:05:55.621Z,100938.57
2023-03-18T01:06:58.436Z,100936.80
2023-03-18T01:08:01.893Z,100940.30
2023-03-18T01:09:06.752Z,100934.86
2023-03-18T01:10:12.702Z,100939.27
2023-03-18T01:11:16.518Z,100937.27
2023-03-18T01:12:19.311Z,100930.19
2023-03-18T01:13:23.961Z,100938.92
2023-03-18T01:14:26.809Z,100932.58
2023-03-18T01:15:29.709Z,100926.91
2023-03-18T01:16:32.584Z,100921.46
2023-03-18T01:17:35.423Z,100925.88
2023-03-18T01:18:38.448Z,100924.21
2023-03-18T01:19:42.451Z,100921.30
2023-03-18T01:20:45.518Z,100916.27
2023-03-18T01:21:48.697Z,100914.52
2023-03-18T01:22:51.549Z,100924.08
2023-03-18T01:23:54.716Z,100918.44
2023-03-18T01:24:58.773Z,100916.67
2023-03-18T01:26:09.794Z,100920.34
2023-03-18T01:27:14.037Z,100912.36
2023-03-18T01:28:18.271Z,100918.22
2023-03-18T01:29:23.762Z,100910.50
2023-03-18T01:30:28.532Z,100915.73
2023-03-18T01:31:32.076Z,100916.09
2023-03-18T01:32:39.548Z,100917.96
2023-03-18T01:33:42.497Z,100915.87
2023-03-18T01:34:45.554Z,100914.04
2023-03-18T01:35:54.723Z,100910.77
2023-03-18T01:36:58.424Z,100921.90
2023-03-18T01:38:05.551Z,100913.66
2023-03-18T01:39:10.338Z,100916.60
2023-03-18T01:40:16.124Z,100916.30
2023-03-18T01:41:20.410Z,100915.30
2023-03-18T01:42:23.274Z,100910.56
2023-03-18T01:43:32.323Z,100908.46
2023-03-18T01:44:36.238Z,100911.20
2023-03-18T01:45:40.468Z,100908.39
2023-03-18T01:46:45.929Z,100904.27
2023-03-18T01:47:49.941Z,100904.84
2023-03-18T01:48:53.541Z,100901.08
2023-03-18T01:49:56.409Z,100900.45
2023-03-18T01:51:04.564Z,100906.98
2023-03-18T01:52:12.925Z,100910.59
2023-03-18T01:53:17.948Z,100908.41
2023-03-18T01:54:22.642Z,100906.50
2023-03-18T01:55:29.805Z,100908.23
2023-03-18T01:56:36.714Z,100902.13
2023-03-18T01:57:42.094Z,100904.40
2023-03-18T01:58:48.369Z,100904.46
2023-03-18T01:59:53.900Z,100908.37
2023-03-18T02:01:09.537Z,100906.20
2023-03-18T02:02:16.310Z,100908.13
2023-03-18T02:03:20.216Z,100913.38
2023-03-18T02:04:27.741Z,100908.61
2023-03-18T02:05:30.708Z,100912.88
2023-03-18T02:06:33.566Z,100905.39
2023-03-18T02:07:38.098Z,100907.40
2023-03-18T02:08:40.957Z,100908.19
2023-03-18T02:09:46.099Z,100910.45
2023-03-18T02:10:49.778Z,100907.11
2023-03-18T02:13:04.110Z,100904.55
2023-03-18T02:14:14.338Z,100912.18
2023-03-18T02:15:21.435Z,100911.39
2023-03-18T02:16:28.862Z,100907.04
2023-03-18T02:17:37.000Z,100908.05
2023-03-18T02:18:51.191Z,100902.19
2023-03-18T02:20:05.224Z,100906.48
2023-03-18T02:21:32.214Z,100903.70
2023-03-18T02:22:46.898Z,100907.16
2023-03-18T02:23:55.375Z,100906.78
2023-03-18T02:25:10.158Z,100907.45
2023-03-18T02:26:23.690Z,100911.48
2023-03-18T02:27:32.106Z,100911.69
2023-03-18T02:28:38.007Z,100911.60
2023-03-18T02:29:42.516Z,100912.09
2023-03-18T02:30:54.211Z,100910.29
2023-03-18T02:32:01.466Z,100906.09
2023-03-18T02:33:06.928Z,100908.40
2023-03-18T02:34:11.774Z,100904.13
2023-03-18T02:35:15.005Z,100906.34
2023-03-18T02:36:22.699Z,100899.51
2023-03-18T02:37:26.747Z,100901.48
2023-03-18T02:38:30.028Z,100900.48
2023-03-18T02:39:33.301Z,100901.27
2023-03-18T02:40:39.718Z,100898.31
2023-03-18T02:41:47.401Z,100904.77
2023-03-18T02:42:51.531Z,100903.02
2023-03-18T02:43:55.304Z,100897.08
2023-03-18T02:44:59.817Z,100900.11
2023-03-18T02:46:31.618Z,100900.33
2023-03-18T02:47:34.478Z,100899.90
2023-03-18T02:48:40.226Z,100894.06
2023-03-18T02:49:43.407Z,100895.59
2023-03-18T02:50:47.472Z,100894.16
2023-03-18T02:51:51.648Z,100896.19
2023-03-18T02:52:54.485Z,100893.27
2023-03-18T02:54:04.094Z,100895.90
2023-03-18T02:55:07.224Z,100893.70
2023-03-18T02:56:11.816Z,100888.14
2023-03-18T02:57:15.889Z,100887.65
2023-03-18T02:58:21.244Z,100889.20
2023-03-18T02:59:24.776Z,100882.29
2023-03-18T03:00:27.617Z,100887.84
2023-03-18T03:01:33.726Z,100888.30
2023-03-18T03:02:37.124Z,100882.55
2023-03-18T03:03:41.038Z,100880.36
2023-03-18T03:04:46.133Z,100877.66
2023-03-18T03:05:51.106Z,100882.17
2023-03-18T03:06:57.070Z,100878.11
2023-03-18T03:08:16.279Z,100879.27
2023-03-18T03:09:22.687Z,100879.11
2023-03-18T03:10:26.283Z,100879.60
2023-03-18T03:11:29.303Z,100876.66
2023-03-18T03:12:37.892Z,100877.84
2023-03-18T03:13:42.140Z,100871.30
2023-03-18T03:14:45.922Z,100867.79
2023-03-18T03:15:49.742Z,100866.39
2023-03-18T03:16:52.930Z,100869.71
2023-03-18T03:17:55.896Z,100869.50
2023-03-18T03:18:59.004Z,100871.42
2023-03-18T03:20:02.071Z,100871.23
2023-03-18T03:21:05.408Z,100872.80
2023-03-18T03:22:08.327Z,100871.41
2023-03-18T03:23:14.504Z,100871.08
2023-03-18T03:24:17.307Z,100873.31
2023-03-18T03:25:20.577Z,100869.24
2023-03-18T03:26:23.736Z,100872.08
2023-03-18T03:27:27.856Z,100866.96
2023-03-18T03:28:32.870Z,100875.80
2023-03-18T03:29:35.684Z,100874.77
2023-03-18T03:30:39.335Z,100867.80
2023-03-18T03:31:42.217Z,100868.47
2023-03-18T03:32:45.230Z,100868.40
2023-03-18T03:33:48.057Z,100869.05
2023-03-18T03:34:50.852Z,100865.46
2023-03-18T03:35:54.384Z,100873.34
2023-03-18T03:36:57.231Z,100868.04
2023-03-18T03:38:02.063Z,100869.71
2023-03-18T03:39:06.205Z,100865.55
2023-03-18T03:40:14.825Z,100867.80
2023-03-18T03:41:18.013Z,100871.57
2023-03-18T03:42:20.774Z,100867.09
2023-03-18T03:43:23.878Z,100868.32
2023-03-18T03:44:26.631Z,100876.65
2023-03-18T03:45:29.700Z,100875.51
2023-03-18T03:46:32.887Z,100872.66
2023-03-18T03:47:36.273Z,100874.92
2023-03-18T03:48:40.130Z,100883.30
2023-03-18T03:49:47.112Z,100877.09
2023-03-18T03:50:51.676Z,100877.81
2023-03-18T03:51:54.513Z,100873.36
2023-03-18T03:52:58.896Z,100878.34
2023-03-18T03:54:04.085Z,100874.42
2023-03-18T03:55:09.596Z,100877.01
2023-03-18T03:56:12.671Z,100882.05
2023-03-18T03:57:15.704Z,100876.18
2023-03-18T03:58:18.764Z,100875.70
2023-03-18T03:59:21.625Z,100882.39
2023-03-18T04:00:50.760Z,100884.77
2023-03-18T04:01:53.568Z,100886.17
2023-03-18T04:02:56.871Z,100883.58
2023-03-18T04:04:02.919Z,100891.81
2023-03-18T04:05:07.260Z,100884.85
2023-03-18T04:06:10.043Z,100877.98
2023-03-18T04:07:16.110Z,100888.92
2023-03-18T04:08:19.011Z,100881.79
2023-03-18T04:09:22.290Z,100882.10
2023-03-18T04:10:26.497Z,100881.51
2023-03-18T04:11:29.888Z,100881.30
2023-03-18T04:12:33.492Z,100882.98
2023-03-18T04:13:36.756Z,100884.49
2023-03-18T04:14:39.853Z,100886.90
2023-03-18T04:15:42.751Z,100883.84
2023-03-18T04:16:48.955Z,100886.08
2023-03-18T04:17:52.025Z,100886.05
2023-03-18T04:18:54.891Z,100886.02
2023-03-18T04:19:59.496Z,100885.40
2023-03-18T04:21:06.011Z,100888.52
2023-03-18T04:22:29.667Z,100884.45
2023-03-18T04:23:33.624Z,100882.92
2023-03-18T04:24:36.722Z,100882.27
2023-03-18T04:25:39.708Z,100888.65
2023-03-18T04:26:42.783Z,100891.55
2023-03-18T04:27:45.791Z,100886.41
2023-03-18T04:28:49.148Z,100891.65
2023-03-18T04:29:52.325Z,100887.09
2023-03-18T04:30:55.562Z,100896.41
2023-03-18T04:31:59.123Z,100896.30
2023-03-18T04:33:03.571Z,100897.16
2023-03-18T04:34:07.004Z,100892.67
2023-03-18T04:35:11.197Z,100901.29
2023-03-18T04:36:14.204Z,100895.17
2023-03-18T04:37:20.150Z,100895.41
2023-03-18T04:38:24.652Z,100896.35
2023-03-18T04:39:27.749Z,100892.80
2023-03-18T04:40:31.221Z,100897.02
2023-03-18T04:41:34.571Z,100896.06
2023-03-18T04:42:39.689Z,100902.04
2023-03-18T04:43:44.769Z,100899.77
2023-03-18T04:44:47.822Z,100902.43
2023-03-18T04:45:51.939Z,100897.88
2023-03-18T04:46:55.260Z,100893.27
2023-03-18T04:47:58.581Z,100892.73
2023-03-18T04:49:02.187Z,100895.50
2023-03-18T04:50:06.159Z,100896.40
2023-03-18T04:51:09.587Z,100899.80
2023-03-18T04:52:12.650Z,100904.64
2023-03-18T04:53:16.724Z,100897.75
2023-03-18T04:54:20.582Z,100897.86
2023-03-18T04:55:24.585Z,100895.56
2023-03-18T04:56:28.131Z,100899.89
2023-03-18T04:57:31.806Z,100901.19
2023-03-18T04:58:35.003Z,100897.71
2023-03-18T04:59:45.451Z,100897.90
2023-03-18T05:00:48.260Z,100892.20
2023-03-18T05:01:58.354Z,100896.39
2023-03-18T05:03:03.110Z,100892.45
2023-03-18T05:04:06.808Z,100894.96
2023-03-18T05:05:19.001Z,100888.33
2023-03-18T05:06:26.974Z,100890.61
2023-03-18T05:07:56.059Z,100892.73
2023-03-18T05:09:00.828Z,100892.39
2023-03-18T05:10:08.458Z,100893.85
2023-03-18T05:11:16.202Z,100893.90
2023-03-18T05:12:19.285Z,100895.38
2023-03-18T05:13:22.054Z,100893.90
2023-03-18T05:14:25.337Z,100891.74
2023-03-18T05:15:28.271Z,100892.74
2023-03-18T05:16:33.322Z,100893.96
2023-03-18T05:17:36.144Z,100887.93
2023-03-18T05:18:41.198Z,100892.77
2023-03-18T05:19:48.262Z,100886.56
2023-03-18T05:20:55.014Z,100891.73
2023-03-18T05:21:58.051Z,100885.92
2023-03-18T05:23:02.084Z,100892.70
2023-03-18T05:24:15.233Z,100892.46
2023-03-18T05:25:20.435Z,100887.35
2023-03-18T05:26:23.576Z,100881.39
2023-03-18T05:27:28.383Z,100881.83
2023-03-18T05:28:35.948Z,100886.45
2023-03-18T05:29:48.245Z,100886.33
2023-03-18T05:31:03.829Z,100881.02
2023-03-18T05:32:08.841Z,100876.91
2023-03-18T05:33:12.460Z,100880.47
2023-03-18T05:34:20.033Z,100879.56
2023-03-18T05:35:23.075Z,100879.92
2023-03-18T05:36:26.591Z,100874.20
2023-03-18T05:37:33.976Z,100881.67
2023-03-18T05:38:41.154Z,100880.63
2023-03-18T05:39:45.387Z,100872.69
2023-03-18T05:40:50.003Z,100869.98
2023-03-18T05:41:56.664Z,100877.35
2023-03-18T05:43:02.843Z,100878.34
2023-03-18T05:44:13.486Z,100869.79
2023-03-18T05:45:17.602Z,100870.33
2023-03-18T05:46:27.149Z,100878.69
2023-03-18T05:48:06.695Z,100871.48
2023-03-18T05:49:15.223Z,100869.64
2023-03-18T05:50:37.939Z,100877.98
2023-03-18T05:51:42.600Z,100879.17
2023-03-18T05:52:47.173Z,100877.19
2023-03-18T05:53:54.605Z,100880.83
2023-03-18T05:55:01.219Z,100883.32
2023-03-18T05:56:07.965Z,100883.29
2023-03-18T05:57:11.191Z,100883.30
2023-03-18T05:58:14.023Z,100888.38
2023-03-18T05:59:17.360Z,100887.20
2023-03-18T06:00:31.443Z,100885.30
2023-03-18T06:01:34.909Z,100888.98
2023-03-18T06:02:39.103Z,100889.92
2023-03-18T06:03:42.860Z,100884.61
2023-03-18T06:04:46.218Z,100881.90
2023-03-18T06:05:49.818Z,100879.60
2023-03-18T06:06:53.542Z,100879.30
2023-03-18T06:07:57.709Z,100875.15
2023-03-18T06:09:01.084Z,100872.98
2023-03-18T06:10:04.350Z,100874.55
2023-03-18T06:11:08.044Z,100879.08
2023-03-18T06:12:12.082Z,100877.67
2023-03-18T06:13:15.416Z,100877.64
2023-03-18T06:14:19.427Z,100870.10
2023-03-18T06:15:22.976Z,100869.50
2023-03-18T06:16:28.325Z,100873.35
2023-03-18T06:17:31.542Z,100873.78
2023-03-18T06:18:35.251Z,100867.11
2023-03-18T06:19:38.147Z,100881.26
2023-03-18T06:20:41.291Z,100878.98
2023-03-18T06:21:44.379Z,100865.93
2023-03-18T06:22:51.720Z,100870.16
2023-03-18T06:23:54.780Z,100869.52
2023-03-18T06:24:58.467Z,100867.89
2023-03-18T06:26:01.988Z,100867.48
2023-03-18T06:27:07.433Z,100867.15
2023-03-18T06:28:10.527Z,100874.56
2023-03-18T06:29:13.518Z,100873.11
2023-03-18T06:30:18.153Z,100869.40
2023-03-18T06:31:22.466Z,100868.14
2023-03-18T06:32:28.195Z,100874.30
2023-03-18T06:33:32.918Z,100873.48
2023-03-18T06:34:36.385Z,100875.58
2023-03-18T06:35:39.837Z,100871.19
2023-03-18T06:36:42.667Z,100873.54
2023-03-18T06:37:48.657Z,100869.56
2023-03-18T06:38:52.122Z,100868.80
2023-03-18T06:39:55.372Z,100868.10
2023-03-18T06:40:59.866Z,100869.84
2023-03-18T06:42:03.039Z,100869.06
2023-03-18T06:43:14.159Z,100882.57
2023-03-18T06:44:19.283Z,100878.65
2023-03-18T06:45:22.980Z,100878.10
2023-03-18T06:46:43.327Z,100873.61
2023-03-18T06:47:46.894Z,100876.25
2023-03-18T06:48:49.934Z,100874.79
2023-03-18T06:49:57.145Z,100881.20
2023-03-18T06:51:08.221Z,100884.05
2023-03-18T06:52:14.217Z,100881.94
2023-03-18T06:53:17.858Z,100875.89
2023-03-18T06:54:21.301Z,100878.66
2023-03-18T06:55:26.705Z,100885.78
2023-03-18T06:56:30.650Z,100882.04
2023-03-18T06:57:42.636Z,100886.27
2023-03-18T06:58:45.939Z,100884.60
2023-03-18T06:59:49.009Z,100884.09
2023-03-18T07:00:51.902Z,100886.10
2023-03-18T07:02:00.518Z,100888.04
2023-03-18T07:03:04.970Z,100878.40
2023-03-18T07:04:08.333Z,100883.59
2023-03-18T07:05:12.819Z,100878.54
2023-03-18T07:06:18.768Z,100882.17
2023-03-18T07:07:22.362Z,100881.39
2023-03-18T07:08:25.698Z,100881.98
2023-03-18T07:09:28.607Z,100879.42
2023-03-18T07:10:33.536Z,100873.12
2023-03-18T07:11:41.662Z,100883.66
2023-03-18T07:12:48.657Z,100881.13
2023-03-18T07:13:53.317Z,100886.64
2023-03-18T07:15:07.635Z,100890.30
2023-03-18T07:16:11.138Z,100891.61
2023-03-18T07:17:14.698Z,100895.01
2023-03-18T07:18:17.573Z,100891.48
2023-03-18T07:19:22.927Z,100889.57
2023-03-18T07:20:27.201Z,100890.11
2023-03-18T07:21:30.110Z,100886.34
2023-03-18T07:22:33.254Z,100886.75
2023-03-18T07:23:36.227Z,100889.63
2023-03-18T07:24:39.136Z,100890.83
2023-03-18T07:25:44.757Z,100889.46
2023-03-18T07:26:47.570Z,100891.52
2023-03-18T07:27:50.685Z,100897.50
2023-03-18T07:28:54.373Z,100897.62
2023-03-18T07:29:57.217Z,100898.45
2023-03-18T07:31:00.008Z,100894.17
2023-03-18T07:32:04.175Z,100892.77
2023-03-18T07:33:07.917Z,100895.36
2023-03-18T07:34:12.313Z,100903.40
2023-03-18T07:35:15.820Z,100895.86
2023-03-18T07:36:19.368Z,100898.91
2023-03-18T07:37:22.109Z,100897.95
2023-03-18T07:38:25.516Z,100901.38
2023-03-18T07:39:28.711Z,100897.30
2023-03-18T07:40:31.520Z,100904.91
2023-03-18T07:41:37.641Z,100905.31
2023-03-18T07:42:40.861Z,100907.42
2023-03-18T07:43:43.726Z,100910.75
2023-03-18T07:44:46.592Z,100910.66
2023-03-18T07:45:49.325Z,100907.69
2023-03-18T07:46:52.614Z,100908.73
2023-03-18T07:47:55.401Z,100907.27
2023-03-18T07:48:58.137Z,100903.02
2023-03-18T07:50:01.217Z,100898.45
2023-03-18T07:51:04.254Z,100903.88
2023-03-18T07:52:07.833Z,100900.88
2023-03-18T07:53:10.830Z,100900.64
2023-03-18T07:54:14.359Z,100906.44
2023-03-18T07:55:17.226Z,100904.44
2023-03-18T07:56:20.570Z,100904.39
2023-03-18T07:57:24.179Z,100905.48
2023-03-18T07:58:27.250Z,100901.10
2023-03-18T07:59:30.077Z,100900.82
2023-03-18T08:00:33.140Z,100903.98
2023-03-18T08:01:35.966Z,100899.90
2023-03-18T08:02:39.129Z,100897.55
2023-03-18T08:03:43.752Z,100896.59
2023-03-18T08:04:46.882Z,100890.59
2023-03-18T08:05:49.911Z,100886.85
2023-03-18T08:06:53.502Z,100887.06
2023-03-18T08:07:56.366Z,100893.47
2023-03-18T08:09:00.062Z,100891.30
2023-03-18T08:10:04.001Z,100892.67
2023-03-18T08:11:08.341Z,100893.41
2023-03-18T08:12:11.185Z,100892.91
2023-03-18T08:13:14.328Z,100893.55
2023-03-18T08:14:17.505Z,100891.36
2023-03-18T08:15:22.030Z,100891.50
2023-03-18T08:16:25.868Z,100895.30
2023-03-18T08:17:28.729Z,100894.05
2023-03-18T08:18:31.673Z,100894.96
2023-03-18T08:19:34.584Z,100892.75
2023-03-18T08:20:38.485Z,100890.51
2023-03-18T08:21:41.309Z,100900.95
2023-03-18T08:22:45.990Z,100897.21
2023-03-18T08:23:49.122Z,100892.42
2023-03-18T08:24:52.149Z,100886.70
2023-03-18T08:25:55.058Z,100889.22
2023-03-18T08:26:57.905Z,100889.51
2023-03-18T08:28:00.702Z,100887.14
2023-03-18T08:29:03.682Z,100885.20
2023-03-18T08:30:07.213Z,100884.30
2023-03-18T08:31:10.386Z,100880.23
2023-03-18T08:32:13.563Z,100879.63
2023-03-18T08:33:16.970Z,100877.97
2023-03-18T08:34:20.110Z,100879.48
2023-03-18T08:35:23.577Z,100879.02
2023-03-18T08:36:28.710Z,100869.58
2023-03-18T08:37:31.493Z,100871.11
2023-03-18T08:38:35.179Z,100868.80
2023-03-18T08:39:37.980Z,100875.08
2023-03-18T08:40:42.393Z,100869.90
2023-03-18T08:41:45.899Z,100872.40
2023-03-18T08:42:48.744Z,100868.31
2023-03-18T08:43:52.516Z,100871.02
2023-03-18T08:44:55.553Z,100871.67
2023-03-18T08:45:58.674Z,100871.20
2023-03-18T08:47:01.928Z,100870.34
2023-03-18T08:48:05.634Z,100867.10
2023-03-18T08:49:08.473Z,100868.11
2023-03-18T08:50:12.231Z,100867.96
2023-03-18T08:51:16.928Z,100865.81
2023-03-18T08:52:19.930Z,100856.17
2023-03-18T08:53:23.336Z,100866.15
2023-03-18T08:54:27.800Z,100858.52
2023-03-18T08:55:34.677Z,100856.69
2023-03-18T08:56:38.213Z,100859.02
2023-03-18T08:57:41.077Z,100859.22
2023-03-18T08:58:48.294Z,100856.95
2023-03-18T08:59:51.216Z,100860.84
2023-03-18T09:00:55.616Z,100853.42
2023-03-18T09:01:58.620Z,100854.71
2023-03-18T09:03:01.779Z,100848.13
2023-03-18T09:04:04.687Z,100846.30
2023-03-18T09:05:07.787Z,100849.69
2023-03-18T09:06:15.226Z,100842.27
2023-03-18T09:07:19.174Z,100844.09
2023-03-18T09:08:22.647Z,100846.23
2023-03-18T09:09:40.929Z,100842.74
2023-03-18T09:10:46.590Z,100837.60
2023-03-18T09:11:49.856Z,100841.54
2023-03-18T09:12:52.677Z,100838.66
2023-03-18T09:13:55.714Z,100843.36
2023-03-18T09:14:58.841Z,100841.46
2023-03-18T09:16:01.933Z,100838.91
2023-03-18T09:17:04.908Z,100837.55
2023-03-18T09:18:12.170Z,100845.31
2023-03-18T09:19:15.362Z,100844.95
2023-03-18T09:20:18.382Z,100837.84
2023-03-18T09:21:22.559Z,100842.23
2023-03-18T09:22:25.312Z,100842.01
2023-03-18T09:23:28.595Z,100835.81
2023-03-18T09:24:31.715Z,100839.27
2023-03-18T09:25:35.183Z,100839.02
2023-03-18T09:26:39.468Z,100838.84
2023-03-18T09:27:42.334Z,100840.06
2023-03-18T09:28:45.065Z,100840.83
2023-03-18T09:29:48.634Z,100840.50
2023-03-18T09:30:51.981Z,100837.17
2023-03-18T09:31:55.580Z,100833.75
2023-03-18T09:32:59.310Z,100828.48
2023-03-18T09:34:02.638Z,100834.55
2023-03-18T09:35:06.729Z,100828.89
2023-03-18T09:36:10.209Z,100826.13
2023-03-18T09:37:14.848Z,100829.96
2023-03-18T09:38:20.038Z,100824.58
2023-03-18T09:39:23.201Z,100822.17
2023-03-18T09:40:32.713Z,100827.16
2023-03-18T09:42:01.208Z,100817.73
2023-03-18T09:43:49.012Z,100818.39
2023-03-18T09:44:58.788Z,100817.37
2023-03-18T09:46:20.155Z,100813.14
2023-03-18T09:47:53.505Z,100816.54
2023-03-18T09:49:18.016Z,100815.60
2023-03-18T09:50:36.904Z,100818.29
2023-03-18T09:51:57.607Z,100815.95
2023-03-18T09:53:14.380Z,100816.61
2023-03-18T09:54:30.379Z,100813.94
2023-03-18T09:55:46.561Z,100812.52
2023-03-18T09:56:52.576Z,100817.27
2023-03-18T09:58:01.290Z,100817.80
2023-03-18T09:59:12.492Z,100818.38
2023-03-18T10:00:29.477Z,100813.17
2023-03-18T10:01:36.174Z,100814.13
2023-03-18T10:02:46.938Z,100814.14
2023-03-18T10:04:09.729Z,100814.75
2023-03-18T10:05:26.008Z,100812.71
2023-03-18T10:06:28.880Z,100809.70
2023-03-18T10:07:42.873Z,100813.74
2023-03-18T10:09:14.459Z,100808.80
2023-03-18T10:10:38.760Z,100816.00
2023-03-18T10:11:44.338Z,100812.74
2023-03-18T10:12:53.233Z,100809.66
2023-03-18T10:14:11.267Z,100808.20
2023-03-18T10:15:21.612Z,100811.96
2023-03-18T10:16:31.166Z,100809.90
2023-03-18T10:17:47.112Z,100810.09
2023-03-18T10:18:49.905Z,100806.80
2023-03-18T10:19:58.895Z,100805.39
2023-03-18T10:21:16.890Z,100802.09
2023-03-18T10:22:30.376Z,100803.11
2023-03-18T10:23:43.996Z,100802.77
2023-03-18T10:25:09.727Z,100800.21
2023-03-18T10:26:19.926Z,100796.54
2023-03-18T10:27:38.446Z,100794.41
2023-03-18T10:29:18.985Z,100797.90
2023-03-18T10:30:47.361Z,100791.78
2023-03-18T10:32:17.315Z,100792.66
2023-03-18T10:33:22.861Z,100795.08
2023-03-18T10:34:38.933Z,100803.22
2023-03-18T10:35:58.272Z,100797.36
2023-03-18T10:37:17.845Z,100796.48
2023-03-18T10:38:26.521Z,100793.95
2023-03-18T10:39:31.015Z,100792.55
2023-03-18T10:40:41.345Z,100792.30
2023-03-18T10:41:50.068Z,100794.13
2023-03-18T10:42:55.900Z,100787.69
2023-03-18T10:44:04.613Z,100786.23
2023-03-18T10:45:29.933Z,100787.61
2023-03-18T10:46:35.726Z,100789.03
2023-03-18T10:47:44.572Z,100787.46
2023-03-18T10:48:53.445Z,100787.30
2023-03-18T10:50:20.064Z,100786.20
2023-03-18T10:51:34.961Z,100786.77
2023-03-18T10:52:47.967Z,100782.61
2023-03-18T10:54:03.750Z,100777.39
2023-03-18T10:55:15.636Z,100772.49
2023-03-18T10:56:19.240Z,100771.83
2023-03-18T10:57:23.780Z,100766.73
2023-03-18T10:58:28.108Z,100763.34
2023-03-18T10:59:31.183Z,100766.77
2023-03-18T11:00:34.540Z,100763.48
2023-03-18T11:01:39.477Z,100762.16
2023-03-18T11:02:42.678Z,100763.09
2023-03-18T11:03:50.418Z,100765.20
2023-03-18T11:05:04.811Z,100763.02
2023-03-18T11:06:26.258Z,100768.70
2023-03-18T11:07:29.037Z,100763.86
2023-03-18T11:08:38.302Z,100763.19
2023-03-18T11:09:42.463Z,100763.92
2023-03-18T11:10:46.852Z,100757.36
2023-03-18T11:11:55.988Z,100762.48
2023-03-18T11:13:00.372Z,100764.92
2023-03-18T11:14:05.363Z,100759.59
2023-03-18T11:15:12.977Z,100766.23
2023-03-18T11:16:38.460Z,100760.95
2023-03-18T11:17:42.152Z,100759.11
2023-03-18T11:18:46.390Z,100755.70
2023-03-18T11:20:01.206Z,100757.48
2023-03-18T11:21:12.916Z,100754.77
2023-03-18T11:22:22.341Z,100754.63
2023-03-18T11:23:56.149Z,100749.08
2023-03-18T11:25:11.564Z,100747.29
2023-03-18T11:26:25.259Z,100747.00
2023-03-18T11:27:38.593Z,100746.58
2023-03-18T11:28:41.939Z,100747.52
2023-03-18T11:29:50.816Z,100751.48
2023-03-18T11:30:57.461Z,100745.70
2023-03-18T11:32:01.829Z,100745.33
2023-03-18T11:33:10.469Z,100744.77
2023-03-18T11:34:19.901Z,100743.83
2023-03-18T11:35:40.034Z,100742.69
2023-03-18T11:36:43.466Z,100743.94
2023-03-18T11:37:47.174Z,100743.54
2023-03-18T11:39:02.054Z,100741.15
2023-03-18T11:40:13.509Z,100738.27
2023-03-18T11:41:30.242Z,100732.46
2023-03-18T11:42:33.031Z,100734.38
2023-03-18T11:43:37.923Z,100730.89
2023-03-18T11:44:40.758Z,100731.22
2023-03-18T11:46:00.244Z,100728.01
2023-03-18T11:47:10.811Z,100730.85
2023-03-18T11:48:19.116Z,100725.36
2023-03-18T11:49:28.458Z,100727.06
2023-03-18T11:50:45.012Z,100734.76
2023-03-18T11:52:01.261Z,100728.95
2023-03-18T11:53:31.207Z,100732.31
2023-03-18T11:55:11.177Z,100731.17
2023-03-18T11:56:34.320Z,100730.80
2023-03-18T11:58:07.052Z,100726.39
2023-03-18T11:59:22.244Z,100725.31
2023-03-18T12:00:48.624Z,100725.42
2023-03-18T12:02:12.993Z,100726.02
2023-03-18T12:04:12.403Z,100736.11
2023-03-18T12:05:35.512Z,100735.73
2023-03-18T12:06:54.472Z,100735.69
2023-03-18T12:08:08.076Z,100733.30
2023-03-18T12:09:30.486Z,100727.33
2023-03-18T12:11:07.767Z,100734.55
2023-03-18T12:12:34.377Z,100736.84
2023-03-18T12:14:18.833Z,100731.23
2023-03-18T12:15:40.595Z,100733.57
2023-03-18T12:16:59.245Z,100734.66
2023-03-18T12:18:26.634Z,100724.45
2023-03-18T12:20:10.696Z,100717.63
2023-03-18T12:21:50.803Z,100721.81
2023-03-18T12:22:54.464Z,100719.00
2023-03-18T12:24:33.072Z,100715.59
2023-03-18T12:26:01.202Z,100717.23
2023-03-18T12:27:15.967Z,100712.42
2023-03-18T12:28:21.965Z,100718.09
2023-03-18T12:29:42.493Z,100714.15
2023-03-18T12:31:16.608Z,100712.73
2023-03-18T12:32:26.491Z,100712.55
2023-03-18T12:33:52.128Z,100707.26
2023-03-18T12:35:07.467Z,100705.16
2023-03-18T12:36:47.260Z,100703.58
2023-03-18T12:38:14.140Z,100704.66
2023-03-18T12:39:40.916Z,100701.11
2023-03-18T12:41:21.528Z,100699.70
2023-03-18T12:42:37.361Z,100692.79
2023-03-18T12:43:49.867Z,100693.33
2023-03-18T12:45:02.239Z,100693.73
2023-03-18T12:46:20.121Z,100699.56
2023-03-18T12:47:34.729Z,100699.12
2023-03-18T12:48:51.871Z,100690.45
2023-03-18T12:50:01.008Z,100692.37